Terminal Aerodrome Forecast
Issued by NWS

Home | Current Version | Previous Version | Text Only | Print | Product List | Glossary On
Versions: 1 2 3 4 5 6 7 8 9 10 11 12 13 14 15 16 17 18 19 20 21
000
FTUS46 KLOX 190208 AAC
TAFSBA
TAF AMD
KSBA 190208Z 1902/1924 12010G16KT 6SM -SHRA BR SCT025 OVC050
     FM190700 12015G25KT 3SM RA BR BKN012 OVC025
     FM191100 17015G25KT 2SM TSRA BR BKN007 OVC015CB
     FM191300 29014G22KT P6SM -SHRA BKN025 BKN050=

USA.gov is the U.S. government's official web portal to all federal, state and local government web resources and services.